createdAt,value
2019-02-15T00:00:39.147Z,6.10
2019-02-15T00:03:11.812Z,6.10
2019-02-15T00:05:44.465Z,6.10
2019-02-15T00:08:17.110Z,6.10
2019-02-15T00:10:49.756Z,6.00
2019-02-15T00:13:22.407Z,6.00
2019-02-15T00:15:55.042Z,6.00
2019-02-15T00:18:27.706Z,6.00
2019-02-15T00:21:00.345Z,6.00
2019-02-15T00:23:32.986Z,6.00
2019-02-15T00:26:05.626Z,6.00
2019-02-15T00:28:38.271Z,6.00
2019-02-15T00:31:10.913Z,6.00
2019-02-15T00:33:43.581Z,5.90
2019-02-15T00:36:16.251Z,5.90
2019-02-15T00:38:48.913Z,5.90
2019-02-15T00:41:30.790Z,5.80
2019-02-15T00:44:03.459Z,5.80
2019-02-15T00:46:36.098Z,5.80
2019-02-15T00:49:08.772Z,5.70
2019-02-15T00:51:41.402Z,5.70
2019-02-15T00:54:14.049Z,5.70
2019-02-15T00:56:46.682Z,5.70
2019-02-15T00:59:19.323Z,5.70
2019-02-15T01:01:52.030Z,5.70
2019-02-15T01:04:24.705Z,5.70
2019-02-15T01:06:57.330Z,5.70
2019-02-15T01:09:29.962Z,5.70
2019-02-15T01:12:02.601Z,5.70
2019-02-15T01:14:35.249Z,5.70
2019-02-15T01:17:07.886Z,5.60
2019-02-15T01:19:40.528Z,5.60
2019-02-15T01:22:13.165Z,5.60
2019-02-15T01:24:45.818Z,5.60
2019-02-15T01:27:18.449Z,5.60
2019-02-15T01:29:51.099Z,5.50
2019-02-15T01:32:23.738Z,5.50
2019-02-15T01:34:56.366Z,5.50
2019-02-15T01:37:29.035Z,5.50
2019-02-15T01:40:01.683Z,5.50
2019-02-15T01:42:34.314Z,5.40
2019-02-15T01:45:07.003Z,5.40
2019-02-15T01:47:40.191Z,5.40
2019-02-15T01:50:12.949Z,5.40
2019-02-15T01:52:45.586Z,5.40
2019-02-15T01:55:18.237Z,5.40
2019-02-15T01:57:50.949Z,5.40
2019-02-15T02:00:23.582Z,5.40
2019-02-15T02:02:56.207Z,5.40
2019-02-15T02:05:28.850Z,5.40
2019-02-15T02:08:01.466Z,5.40
2019-02-15T02:10:34.110Z,5.40
2019-02-15T02:13:06.803Z,5.40
2019-02-15T02:15:39.442Z,5.40
2019-02-15T02:18:12.066Z,5.40
2019-02-15T02:20:45.174Z,5.40
2019-02-15T02:23:17.802Z,5.40
2019-02-15T02:25:50.450Z,5.40
2019-02-15T02:28:23.071Z,5.40
2019-02-15T02:30:55.710Z,5.40
2019-02-15T02:33:28.343Z,5.40
2019-02-15T02:36:01.067Z,5.40
2019-02-15T02:38:33.894Z,5.40
2019-02-15T02:41:06.533Z,5.40
2019-02-15T02:43:39.195Z,5.30
2019-02-15T02:46:11.930Z,5.30
2019-02-15T02:48:44.595Z,5.30
2019-02-15T02:51:17.251Z,5.30
2019-02-15T02:53:49.885Z,5.30
2019-02-15T02:56:22.533Z,5.30
2019-02-15T02:58:55.176Z,5.30
2019-02-15T03:01:27.810Z,5.30
2019-02-15T03:04:00.435Z,5.30
2019-02-15T03:06:33.189Z,5.30
2019-02-15T03:09:05.986Z,5.20
2019-02-15T03:11:38.735Z,5.20
2019-02-15T03:14:12.037Z,5.20
2019-02-15T03:16:44.771Z,5.20
2019-02-15T03:19:17.410Z,5.10
2019-02-15T03:21:50.047Z,5.10
2019-02-15T03:24:22.734Z,5.10
2019-02-15T03:26:55.416Z,5.10
2019-02-15T03:29:28.066Z,5.10
2019-02-15T03:32:00.768Z,5.10
2019-02-15T03:34:36.116Z,5.10
2019-02-15T03:37:07.774Z,5.20
2019-02-15T03:39:40.413Z,5.20
2019-02-15T03:42:13.029Z,5.20
2019-02-15T03:44:45.685Z,5.20
2019-02-15T03:47:18.321Z,5.10
2019-02-15T03:49:50.942Z,5.10
2019-02-15T03:52:23.625Z,5.10
2019-02-15T03:54:56.267Z,5.10
2019-02-15T03:57:28.895Z,5.10
2019-02-15T04:00:01.526Z,5.10
2019-02-15T04:02:34.205Z,5.10
2019-02-15T04:05:06.883Z,5.00
2019-02-15T04:07:39.604Z,5.00
2019-02-15T04:10:12.245Z,5.00
2019-02-15T04:12:44.870Z,5.00
2019-02-15T04:15:17.509Z,4.90
2019-02-15T04:17:50.162Z,4.90
2019-02-15T04:20:23.007Z,4.90
2019-02-15T04:22:55.645Z,4.90
2019-02-15T04:25:28.353Z,4.90
2019-02-15T04:28:00.999Z,4.80
2019-02-15T04:30:33.662Z,4.80
2019-02-15T04:33:06.302Z,4.90
2019-02-15T04:35:38.926Z,4.90
2019-02-15T04:38:11.580Z,4.90
2019-02-15T04:40:44.297Z,4.90
2019-02-15T04:43:16.968Z,4.90
2019-02-15T04:45:49.606Z,4.90
2019-02-15T04:48:22.246Z,4.90
2019-02-15T04:50:54.961Z,4.90
2019-02-15T04:53:27.620Z,4.90
2019-02-15T04:56:00.299Z,4.90
2019-02-15T04:58:32.957Z,4.90
2019-02-15T05:01:05.610Z,4.90
2019-02-15T05:03:38.239Z,4.90
2019-02-15T05:06:10.870Z,4.90
2019-02-15T05:08:43.525Z,4.90
2019-02-15T05:11:16.286Z,4.80
2019-02-15T05:13:48.950Z,4.80
2019-02-15T05:16:21.641Z,4.80
2019-02-15T05:18:54.266Z,4.80
2019-02-15T05:21:26.920Z,4.70
2019-02-15T05:23:59.532Z,4.70
2019-02-15T05:26:32.181Z,4.70
2019-02-15T05:29:04.860Z,4.70
2019-02-15T05:31:37.542Z,4.70
2019-02-15T05:34:10.193Z,4.70
2019-02-15T05:36:42.846Z,4.70
2019-02-15T05:39:15.493Z,4.60
2019-02-15T05:41:48.151Z,4.60
2019-02-15T05:44:20.786Z,4.60
2019-02-15T05:46:53.448Z,4.60
2019-02-15T05:49:26.143Z,4.60
2019-02-15T05:51:58.774Z,4.60
2019-02-15T05:54:31.398Z,4.60
2019-02-15T05:57:04.094Z,4.60
2019-02-15T05:59:36.714Z,4.60
2019-02-15T06:02:09.343Z,4.60
2019-02-15T06:04:41.986Z,4.50
2019-02-15T06:07:14.628Z,4.50
2019-02-15T06:09:47.269Z,4.50
2019-02-15T06:12:19.912Z,4.50
2019-02-15T06:14:52.550Z,4.50
2019-02-15T06:17:25.204Z,4.50
2019-02-15T06:19:57.864Z,4.50
2019-02-15T06:22:30.502Z,4.50
2019-02-15T06:25:03.181Z,4.50
2019-02-15T06:27:35.824Z,4.50
2019-02-15T06:30:08.712Z,4.50
2019-02-15T06:32:41.459Z,4.50
2019-02-15T06:35:14.079Z,4.50
2019-02-15T06:37:46.786Z,4.50
2019-02-15T06:40:19.425Z,4.50
2019-02-15T06:42:52.083Z,4.50
2019-02-15T06:45:25.598Z,4.50
2019-02-15T06:47:58.375Z,4.60
2019-02-15T06:50:31.013Z,4.60
2019-02-15T06:53:03.672Z,4.60
2019-02-15T06:55:36.339Z,4.60
2019-02-15T06:58:09.030Z,4.60
2019-02-15T07:00:41.650Z,4.60
2019-02-15T07:03:14.288Z,4.60
2019-02-15T07:05:47.054Z,4.70
2019-02-15T07:08:19.742Z,4.70
2019-02-15T07:10:52.374Z,4.70
2019-02-15T07:13:25.055Z,4.80
2019-02-15T07:15:57.709Z,4.80
2019-02-15T07:18:30.370Z,4.80
2019-02-15T07:21:03.012Z,4.90
2019-02-15T07:23:35.750Z,4.90
2019-02-15T07:26:08.407Z,4.90
2019-02-15T07:28:41.058Z,5.00
2019-02-15T07:31:13.686Z,5.00
2019-02-15T07:33:46.402Z,5.00
2019-02-15T07:36:19.058Z,5.10
2019-02-15T07:38:51.691Z,5.10
2019-02-15T07:41:24.346Z,5.20
2019-02-15T07:43:56.984Z,5.20
2019-02-15T07:46:29.626Z,5.30
2019-02-15T07:49:02.285Z,5.30
2019-02-15T07:51:35.018Z,5.40
2019-02-15T07:54:07.697Z,5.40
2019-02-15T07:56:40.330Z,5.50
2019-02-15T07:59:12.981Z,5.50
2019-02-15T08:01:45.677Z,5.60
2019-02-15T08:04:18.315Z,5.60
2019-02-15T08:06:50.954Z,5.60
2019-02-15T08:09:23.607Z,5.70
2019-02-15T08:11:56.266Z,5.70
2019-02-15T08:14:28.932Z,5.80
2019-02-15T08:17:01.625Z,5.80
2019-02-15T08:19:34.268Z,5.80
2019-02-15T08:22:06.906Z,5.90
2019-02-15T08:24:39.557Z,6.00
2019-02-15T08:27:12.200Z,6.00
2019-02-15T08:29:44.887Z,6.10
2019-02-15T08:32:17.570Z,6.10
2019-02-15T08:34:50.220Z,6.20
2019-02-15T08:37:22.864Z,6.30
2019-02-15T08:39:55.489Z,6.30
2019-02-15T08:42:28.126Z,6.30
2019-02-15T08:45:00.781Z,6.40
2019-02-15T08:47:33.451Z,6.50
2019-02-15T08:50:06.203Z,6.50
2019-02-15T08:52:38.838Z,6.60
2019-02-15T08:55:11.545Z,6.60
2019-02-15T08:57:44.156Z,6.70
2019-02-15T09:00:16.795Z,6.70
2019-02-15T09:02:49.450Z,6.90
2019-02-15T09:05:22.087Z,7.00
2019-02-15T09:07:54.735Z,7.00
2019-02-15T09:10:27.375Z,7.10
2019-02-15T09:13:00.009Z,7.20
2019-02-15T09:15:32.655Z,7.20
2019-02-15T09:18:05.274Z,7.40
2019-02-15T09:20:37.929Z,7.40
2019-02-15T09:23:12.244Z,7.50
2019-02-15T09:25:45.059Z,7.60
2019-02-15T09:28:17.766Z,7.70
2019-02-15T09:30:50.416Z,7.70
2019-02-15T09:33:23.061Z,7.90
2019-02-15T09:35:55.743Z,7.90
2019-02-15T09:38:28.374Z,8.00
2019-02-15T09:41:03.782Z,8.10
2019-02-15T09:43:36.422Z,8.10
2019-02-15T09:46:09.045Z,8.20
2019-02-15T09:48:41.681Z,8.30
2019-02-15T09:51:14.402Z,8.30
2019-02-15T09:53:47.037Z,8.40
2019-02-15T09:56:19.759Z,8.50
2019-02-15T09:58:52.403Z,8.60
2019-02-15T10:01:25.037Z,8.60
2019-02-15T10:03:57.708Z,8.70
2019-02-15T10:06:30.363Z,8.80
2019-02-15T10:09:03.818Z,8.90
2019-02-15T10:11:36.458Z,9.00
2019-02-15T10:14:12.725Z,9.10
2019-02-15T10:16:45.537Z,9.10
2019-02-15T10:19:22.408Z,9.20
2019-02-15T10:21:52.841Z,9.20
2019-02-15T10:24:25.596Z,9.30
2019-02-15T10:26:58.231Z,9.40
2019-02-15T10:29:30.866Z,9.40
2019-02-15T10:32:03.518Z,9.50
2019-02-15T10:34:36.183Z,9.60
2019-02-15T10:37:08.847Z,9.70
2019-02-15T10:39:41.493Z,9.80
2019-02-15T10:42:14.145Z,9.90
2019-02-15T10:44:46.796Z,9.90
2019-02-15T10:47:25.119Z,10.00
2019-02-15T10:49:53.874Z,10.10
2019-02-15T10:52:26.504Z,10.10
2019-02-15T10:54:59.144Z,10.20
2019-02-15T10:57:31.845Z,10.30
2019-02-15T11:00:06.155Z,10.40
2019-02-15T11:02:38.785Z,10.50
2019-02-15T11:05:11.506Z,10.60
2019-02-15T11:07:44.139Z,10.60
2019-02-15T11:10:16.790Z,10.60
2019-02-15T11:12:49.438Z,10.60
2019-02-15T11:15:22.077Z,10.80
2019-02-15T11:17:54.815Z,10.80
2019-02-15T11:20:27.451Z,10.90
2019-02-15T11:23:00.087Z,11.00
2019-02-15T11:25:32.735Z,11.10
2019-02-15T11:28:05.413Z,11.10
2019-02-15T11:30:38.070Z,11.20
2019-02-15T11:33:10.670Z,11.30
2019-02-15T11:35:43.466Z,11.40
2019-02-15T11:38:16.147Z,11.50
2019-02-15T11:40:48.804Z,11.50
2019-02-15T11:43:21.438Z,11.60
2019-02-15T11:45:54.091Z,11.60
2019-02-15T11:48:26.727Z,11.70
2019-02-15T11:50:59.366Z,11.70
2019-02-15T11:53:32.058Z,11.80
2019-02-15T11:56:04.726Z,11.90
2019-02-15T11:58:37.359Z,11.90
2019-02-15T12:01:10.010Z,12.00
2019-02-15T12:03:42.658Z,12.00
2019-02-15T12:06:15.345Z,12.10
2019-02-15T12:08:48.050Z,12.20
2019-02-15T12:11:20.731Z,12.30
2019-02-15T12:13:53.370Z,12.30
2019-02-15T12:16:26.125Z,12.30
2019-02-15T12:18:58.775Z,12.30
2019-02-15T12:21:31.482Z,12.40
2019-02-15T12:24:04.130Z,12.50
2019-02-15T12:26:36.841Z,12.50
2019-02-15T12:29:09.503Z,12.60
2019-02-15T12:31:42.182Z,12.80
2019-02-15T12:34:14.919Z,12.80
2019-02-15T12:36:47.576Z,12.90
2019-02-15T12:39:20.287Z,13.00
2019-02-15T12:41:52.929Z,13.00
2019-02-15T12:44:25.558Z,13.10
2019-02-15T12:46:58.207Z,13.20
2019-02-15T12:49:30.849Z,13.20
2019-02-15T12:52:03.485Z,13.30
2019-02-15T12:54:36.153Z,13.40
2019-02-15T12:57:08.913Z,13.40
2019-02-15T12:59:41.539Z,13.40
2019-02-15T13:02:14.190Z,13.50
2019-02-15T13:04:46.864Z,13.50
2019-02-15T13:07:24.208Z,13.50
2019-02-15T13:09:56.843Z,13.60
2019-02-15T13:12:29.527Z,13.70
2019-02-15T13:15:02.170Z,13.70
2019-02-15T13:17:34.872Z,13.80
2019-02-15T13:20:07.546Z,13.90
2019-02-15T13:22:40.198Z,14.00
2019-02-15T13:25:12.828Z,14.00
2019-02-15T13:27:45.468Z,14.00
2019-02-15T13:30:18.300Z,14.10
2019-02-15T13:32:51.131Z,14.10
2019-02-15T13:35:23.737Z,14.20
2019-02-15T13:37:56.401Z,14.20
2019-02-15T13:40:29.062Z,14.30
2019-02-15T13:43:01.758Z,14.30
2019-02-15T13:45:34.449Z,14.40
2019-02-15T13:48:07.098Z,14.40
2019-02-15T13:50:39.738Z,14.50
2019-02-15T13:55:45.674Z,14.50
2019-02-15T14:00:50.701Z,14.60
2019-02-15T14:03:23.358Z,14.60
2019-02-15T14:05:56.023Z,14.60
2019-02-15T14:08:28.688Z,14.60
2019-02-15T14:11:01.325Z,14.60
2019-02-15T14:13:34.042Z,14.60
2019-02-15T14:16:06.741Z,14.70
2019-02-15T14:21:11.755Z,14.80
2019-02-15T14:23:44.390Z,14.80
2019-02-15T14:26:17.090Z,14.80
2019-02-15T14:28:49.741Z,14.80
2019-02-15T14:31:22.443Z,14.70
2019-02-15T14:33:55.159Z,14.70
2019-02-15T14:36:27.825Z,14.70
2019-02-15T14:39:00.466Z,14.70
2019-02-15T14:41:33.115Z,14.80
2019-02-15T14:44:05.767Z,14.80
2019-02-15T14:46:38.488Z,14.80
2019-02-15T14:49:11.170Z,14.80
2019-02-15T14:51:43.822Z,14.90
2019-02-15T14:54:16.493Z,14.80
2019-02-15T14:56:49.250Z,14.90
2019-02-15T14:59:21.841Z,14.90
2019-02-15T15:01:54.490Z,14.90
2019-02-15T15:04:27.406Z,14.90
2019-02-15T15:07:00.360Z,14.90
2019-02-15T15:09:33.137Z,14.90
2019-02-15T15:12:05.861Z,14.90
2019-02-15T15:14:38.494Z,14.90
2019-02-15T15:17:11.134Z,14.90
2019-02-15T15:19:43.765Z,14.90
2019-02-15T15:22:19.697Z,14.90
2019-02-15T15:24:52.686Z,14.90
2019-02-15T15:27:25.375Z,14.90
2019-02-15T15:29:58.047Z,14.90
2019-02-15T15:32:30.782Z,14.80
2019-02-15T15:35:03.504Z,14.90
2019-02-15T15:37:36.277Z,14.90
2019-02-15T15:40:10.134Z,14.90
2019-02-15T15:42:42.884Z,14.90
2019-02-15T15:45:15.552Z,14.90
2019-02-15T15:47:48.309Z,14.90
2019-02-15T15:50:21.007Z,14.80
2019-02-15T15:52:53.695Z,14.90
2019-02-15T15:55:26.327Z,14.90
2019-02-15T15:57:58.995Z,14.80
2019-02-15T16:00:38.631Z,14.70
2019-02-15T16:03:06.071Z,14.70
2019-02-15T16:05:38.809Z,14.70
2019-02-15T16:08:11.490Z,14.60
2019-02-15T16:10:44.136Z,14.50
2019-02-15T16:13:16.812Z,14.50
2019-02-15T16:15:49.446Z,14.40
2019-02-15T16:18:22.086Z,14.40
2019-02-15T16:20:54.738Z,14.40
2019-02-15T16:23:27.399Z,14.40
2019-02-15T16:26:00.038Z,14.40
2019-02-15T16:28:32.690Z,14.30
2019-02-15T16:31:05.330Z,14.30
2019-02-15T16:33:38.055Z,14.30
2019-02-15T16:36:10.732Z,14.30
2019-02-15T16:38:43.951Z,14.30
2019-02-15T16:41:16.595Z,14.30
2019-02-15T16:43:49.235Z,14.20
2019-02-15T16:46:21.887Z,14.20
2019-02-15T16:48:54.588Z,14.10
2019-02-15T16:51:27.258Z,13.90
2019-02-15T16:53:59.934Z,13.80
2019-02-15T16:56:32.599Z,13.70
2019-02-15T16:59:05.238Z,13.60
2019-02-15T17:01:37.956Z,13.50
2019-02-15T17:04:10.686Z,13.50
2019-02-15T17:06:43.322Z,13.50
2019-02-15T17:09:16.006Z,13.50
2019-02-15T17:11:48.641Z,13.40
2019-02-15T17:14:21.287Z,13.50
2019-02-15T17:16:53.965Z,13.50
2019-02-15T17:19:26.620Z,13.50
2019-02-15T17:21:59.261Z,13.40
2019-02-15T17:24:31.911Z,13.30
2019-02-15T17:27:04.542Z,13.30
2019-02-15T17:29:37.191Z,13.30
2019-02-15T17:32:09.862Z,13.10
2019-02-15T17:34:42.526Z,13.00
2019-02-15T17:37:15.335Z,13.00
2019-02-15T17:39:50.735Z,12.90
2019-02-15T17:42:23.482Z,12.90
2019-02-15T17:44:56.126Z,12.90
2019-02-15T17:47:28.752Z,12.90
2019-02-15T17:50:01.402Z,12.90
2019-02-15T17:52:34.029Z,12.90
2019-02-15T17:55:06.760Z,12.80
2019-02-15T17:57:39.389Z,12.80
2019-02-15T18:00:12.114Z,12.80
2019-02-15T18:02:44.757Z,12.70
2019-02-15T18:05:17.399Z,12.70
2019-02-15T18:07:50.046Z,12.70
2019-02-15T18:10:22.719Z,12.60
2019-02-15T18:12:55.374Z,12.60
2019-02-15T18:15:31.076Z,12.50
2019-02-15T18:18:03.700Z,12.50
2019-02-15T18:20:36.362Z,12.30
2019-02-15T18:23:09.013Z,12.30
2019-02-15T18:25:41.738Z,12.20
2019-02-15T18:28:14.422Z,12.20
2019-02-15T18:30:47.065Z,12.10
2019-02-15T18:33:19.730Z,12.10
2019-02-15T18:35:52.394Z,12.00
2019-02-15T18:38:25.085Z,11.90
2019-02-15T18:40:57.738Z,11.90
2019-02-15T18:43:30.402Z,11.90
2019-02-15T18:46:03.079Z,11.80
2019-02-15T18:48:35.761Z,11.80
2019-02-15T18:51:08.409Z,11.70
2019-02-15T18:53:41.053Z,11.70
2019-02-15T18:56:13.722Z,11.70
2019-02-15T18:58:46.368Z,11.70
2019-02-15T19:01:19.052Z,11.70
2019-02-15T19:03:54.674Z,11.70
2019-02-15T19:06:27.437Z,11.60
2019-02-15T19:09:00.087Z,11.60
2019-02-15T19:11:32.714Z,11.60
2019-02-15T19:14:05.377Z,11.60
2019-02-15T19:16:38.049Z,11.60
2019-02-15T19:19:10.727Z,11.50
2019-02-15T19:21:43.391Z,11.40
2019-02-15T19:24:16.129Z,11.40
2019-02-15T19:26:48.769Z,11.30
2019-02-15T19:29:21.440Z,11.30
2019-02-15T19:31:54.693Z,11.20
2019-02-15T19:34:27.584Z,11.10
2019-02-15T19:37:00.227Z,11.00
2019-02-15T19:39:33.346Z,11.00
2019-02-15T19:42:11.795Z,10.90
2019-02-15T19:44:47.047Z,10.80
2019-02-15T19:47:21.959Z,10.70
2019-02-15T19:49:55.527Z,10.70
2019-02-15T19:52:28.248Z,10.60
2019-02-15T19:55:01.128Z,10.60
2019-02-15T19:57:35.623Z,10.50
2019-02-15T20:00:11.387Z,10.50
2019-02-15T20:02:50.251Z,10.40
2019-02-15T20:05:23.091Z,10.40
2019-02-15T20:07:56.501Z,10.30
2019-02-15T20:10:29.172Z,10.30
2019-02-15T20:13:01.954Z,10.30
2019-02-15T20:15:37.032Z,10.30
2019-02-15T20:18:11.497Z,10.20
2019-02-15T20:20:44.425Z,10.30
2019-02-15T20:23:17.267Z,10.20
2019-02-15T20:25:50.078Z,10.20
2019-02-15T20:28:22.726Z,10.20
2019-02-15T20:30:55.416Z,10.10
2019-02-15T20:33:28.185Z,10.10
2019-02-15T20:36:01.240Z,10.10
2019-02-15T20:38:35.536Z,10.10
2019-02-15T20:41:08.393Z,10.10
2019-02-15T20:43:41.206Z,10.10
2019-02-15T20:46:13.965Z,10.10
2019-02-15T20:48:46.740Z,10.20
2019-02-15T20:51:19.402Z,10.10
2019-02-15T20:53:52.062Z,10.10
2019-02-15T20:56:24.703Z,10.10
2019-02-15T20:58:57.377Z,10.10
2019-02-15T21:01:30.053Z,10.10
2019-02-15T21:04:02.804Z,10.10
2019-02-15T21:06:35.538Z,10.10
2019-02-15T21:09:08.249Z,10.00
2019-02-15T21:11:40.926Z,9.90
2019-02-15T21:14:13.551Z,9.90
2019-02-15T21:16:46.198Z,9.90
2019-02-15T21:19:18.835Z,9.80
2019-02-15T21:21:51.607Z,9.80
2019-02-15T21:24:24.305Z,9.80
2019-02-15T21:26:57.090Z,9.80
2019-02-15T21:29:29.719Z,9.70
2019-02-15T21:32:02.377Z,9.70
2019-02-15T21:34:35.010Z,9.60
2019-02-15T21:37:07.674Z,9.60
2019-02-15T21:39:40.398Z,9.50
2019-02-15T21:42:13.046Z,9.60
2019-02-15T21:44:45.861Z,9.50
2019-02-15T21:47:18.542Z,9.40
2019-02-15T21:49:51.162Z,9.40
2019-02-15T21:52:23.845Z,9.30
2019-02-15T21:54:56.481Z,9.30
2019-02-15T21:57:29.186Z,9.30
2019-02-15T22:00:01.815Z,9.30
2019-02-15T22:02:34.481Z,9.20
2019-02-15T22:05:09.018Z,9.20
2019-02-15T22:07:41.662Z,9.20
2019-02-15T22:10:14.341Z,9.10
2019-02-15T22:12:47.065Z,9.20
2019-02-15T22:15:19.691Z,9.10
2019-02-15T22:17:52.400Z,9.10
2019-02-15T22:20:26.984Z,9.00
2019-02-15T22:22:59.398Z,9.00
2019-02-15T22:25:32.021Z,8.90
2019-02-15T22:28:04.669Z,8.80
2019-02-15T22:30:37.308Z,8.80
2019-02-15T22:33:09.977Z,8.80
2019-02-15T22:35:42.603Z,8.70
2019-02-15T22:38:15.268Z,8.70
2019-02-15T22:40:51.125Z,8.70
2019-02-15T22:43:23.850Z,8.70
2019-02-15T22:45:56.485Z,8.60
2019-02-15T22:48:29.127Z,8.60
2019-02-15T22:51:03.475Z,8.60
2019-02-15T22:53:36.253Z,8.60
2019-02-15T22:56:08.983Z,8.50
2019-02-15T22:58:41.642Z,8.50
2019-02-15T23:01:16.241Z,8.50
2019-02-15T23:03:48.909Z,8.50
2019-02-15T23:06:21.589Z,8.50
2019-02-15T23:08:54.273Z,8.50
2019-02-15T23:11:26.913Z,8.50
2019-02-15T23:13:59.579Z,8.50
2019-02-15T23:16:32.219Z,8.50
2019-02-15T23:19:04.865Z,8.50
2019-02-15T23:21:37.630Z,8.40
2019-02-15T23:24:10.262Z,8.40
2019-02-15T23:26:42.919Z,8.40
2019-02-15T23:29:15.562Z,8.40
2019-02-15T23:31:48.195Z,8.40
2019-02-15T23:34:20.876Z,8.40
2019-02-15T23:36:53.489Z,8.40
2019-02-15T23:39:26.135Z,8.30
2019-02-15T23:41:58.866Z,8.30
2019-02-15T23:44:31.503Z,8.30
2019-02-15T23:47:04.150Z,8.30
2019-02-15T23:49:36.783Z,8.30
2019-02-15T23:52:09.409Z,8.30
2019-02-15T23:54:42.050Z,8.20
2019-02-15T23:57:14.718Z,8.20
2019-02-15T23:59:47.370Z,8.20
